EBBRLSGG

Guest
Details From EBBR - Brussels Airport
To LSGG - Geneva
Flight Number -
Tags generated
Created
Modified
Stats Distance 302 nm / 560 km
Max Altitude 35,000 ft / 10,668 m
Waypoints 6
Social Downloads 0
Likes 0
Share VATSIM

Download

Looking for another format? Having issues loading an existing format? Contact us
Advertisement - Login to hide

Notes

Basic altitude profile: - Ascent Rate: 2500ft/min - Ascent Speed: 250kts - Cruise Altitude: 20000ft - Cruise Speed: 420kts - Descent Rate: 1500ft/min - Descent Speed: 250kts Options: - Use NATs: no - Use PACOTS: no - Use low airways: no - Use high airways: no

Route

EBBR 5000N0500E 4900N0500E 4800N0500E 4700N0500E LSGG

ID Type Via Altitude (ft/m) Position (lat/lon) Dist (leg/tot) Name
O EBBR APT - 0 / 0 50.89995 / 4.49281 - / 0 nm Brussels Airport
5000N0500E LATLON - 20,500 / 6,248 50.00000 / 5.00000 57 / 57 nm
4900N0500E LATLON - 35,000 / 10,668 49.00000 / 5.00000 60 / 117 nm
4800N0500E LATLON - 26,700 / 8,138 48.00000 / 5.00000 60 / 177 nm
4700N0500E LATLON - 13,800 / 4,206 47.00000 / 5.00000 60 / 237 nm
O LSGG APT - 0 / 0 46.23775 / 6.10617 64 / 302 nm Geneva

Altitude Profile

Advertisement - Login to hide

Weather


0- 5 10 15 20 25 30 35+ Temperature / °C

Clouds and Precipitation
Forecast for 2018-10-16 00:00 UTC. Updated 23 minutes ago

Ground ~20,000 ft ~40,000 ft Winds

EBBR

Details ICAO EBBR (BRU)
Name Brussels Airport
Region Belgium
Timezone Europe/Brussels (UTC+2.0)
Stats Elevation 184 ft / 56 m (AMSL)
Location 50.900000° 4.492780°
Runways 3
Magnetic Variation 1.238° E

METAR

EBBR 152120Z 18003KT CAVOK 13/10 Q1015 NOSIG

Decode

TAF

TAF EBBR 151704Z 1518/1624 17004KT CAVOK= TAF EDDF 151700Z 1518/1624 05004KT CAVOK

Decode

Departure Runways

ID Width Length Bearing (true/mag) Surface Threshold Overrun Markings Lighting
01 164 ft / 50 m 9,814 ft / 2,991 m 14.39° / 13.15° ASPHALT 148 ft / 45 m 0 ft / 0 m PREC-APP CENTERLINE EDGE THRESHOLD ALSF-II TDZ REIL-OMNI
07L 148 ft / 45 m 11,933 ft / 3,637 m 65.29° / 64.06° ASPHALT 843 ft / 257 m 0 ft / 0 m PREC-APP CENTERLINE EDGE THRESHOLD TDZ REIL-OMNI
07R 148 ft / 45 m 10,550 ft / 3,216 m 69.91° / 68.68° ASPHALT 358 ft / 109 m 0 ft / 0 m PREC-APP CENTERLINE EDGE THRESHOLD REIL-OMNI
19 164 ft / 50 m 9,814 ft / 2,991 m 194.39° / 193.16° ASPHALT 718 ft / 219 m 0 ft / 0 m PREC-APP CENTERLINE EDGE THRESHOLD ALSF-I TDZ REIL-OMNI
25L 148 ft / 45 m 10,550 ft / 3,216 m 249.95° / 248.71° ASPHALT 0 ft / 0 m 0 ft / 0 m PREC-APP CENTERLINE EDGE THRESHOLD ALSF-II TDZ REIL-OMNI
25R 148 ft / 45 m 11,933 ft / 3,637 m 245.33° / 244.09° ASPHALT 981 ft / 299 m 0 ft / 0 m PREC-APP CENTERLINE EDGE THRESHOLD ALSF-II TDZ REIL-OMNI

LSGG

Details ICAO LSGG (GVA)
Name Geneva
Region Switzerland
Timezone Europe/Zurich (UTC+2.0)
Stats Elevation 1,410 ft / 430 m (AMSL)
Location 46.237700° 6.106100°
Runways 2
Magnetic Variation 1.839° E

METAR

LSGG 152120Z VRB02KT CAVOK 14/08 Q1016 NOSIG

Decode

TAF

TAF LSGG 152025Z 1521/1703 VRB04KT CAVOK TX23/1615Z TN09/1606Z

Decode

Destination Runways

ID Width Length Bearing (true/mag) Surface Threshold Overrun Markings Lighting
04 164 ft / 50 m 12,806 ft / 3,903 m 45.46° / 43.62° CONCRETE 1,073 ft / 327 m 0 ft / 0 m PREC-APP CENTERLINE EDGE THRESHOLD ALSF-I TDZ REIL-UNI
04L 98 ft / 30 m 2,703 ft / 824 m 45.31° / 43.47° GRASS 610 ft / 186 m 0 ft / 0 m NONE
22 164 ft / 50 m 12,806 ft / 3,903 m 225.48° / 223.64° CONCRETE 0 ft / 0 m 0 ft / 0 m PREC-APP CENTERLINE EDGE THRESHOLD ALSF-II TDZ REIL-UNI
22R 98 ft / 30 m 2,703 ft / 824 m 225.31° / 223.47° GRASS 1,001 ft / 305 m 0 ft / 0 m NONE

Approach Navaids

Runway Type Ident Frequency Range Bearing (true/mag) Slope Elevation
04 GS INE 110.90 MHz 18 nm / 33 km 45.48° / 43.64 ° 3.00° 1,410 ft / 430 m (AMSL)
04 LOC-ILS INE 110.90 MHz 18 nm / 33 km 45.48° / 43.64 ° - 1,410 ft / 430 m (AMSL)
22 GS ISW 109.90 MHz 20 nm / 37 km 225.48° / 223.64 ° 3.00° 1,410 ft / 430 m (AMSL)
22 LOC-ILS ISW 109.90 MHz 20 nm / 37 km 225.48° / 223.64 ° - 1,410 ft / 430 m (AMSL)

Popular Alternatives